sensor_id;sensor_type;location;lat;lon;timestamp;temperature;humidity
67050;DHT22;53955;52.442;13.284;2023-11-21T00:00:38;11.90;89.50
67050;DHT22;53955;52.442;13.284;2023-11-21T00:03:06;11.90;90.20
67050;DHT22;53955;52.442;13.284;2023-11-21T00:05:34;11.90;89.60
67050;DHT22;53955;52.442;13.284;2023-11-21T00:08:01;12.00;89.90
67050;DHT22;53955;52.442;13.284;2023-11-21T00:10:28;12.00;89.80
67050;DHT22;53955;52.442;13.284;2023-11-21T00:12:54;12.00;88.80
67050;DHT22;53955;52.442;13.284;2023-11-21T00:15:21;12.20;87.70
67050;DHT22;53955;52.442;13.284;2023-11-21T00:17:48;12.10;87.30
67050;DHT22;53955;52.442;13.284;2023-11-21T00:20:14;12.10;87.50
67050;DHT22;53955;52.442;13.284;2023-11-21T00:22:42;12.00;86.20
67050;DHT22;53955;52.442;13.284;2023-11-21T00:25:09;11.90;86.20
67050;DHT22;53955;52.442;13.284;2023-11-21T00:27:36;11.70;86.50
67050;DHT22;53955;52.442;13.284;2023-11-21T00:30:03;11.70;86.00
67050;DHT22;53955;52.442;13.284;2023-11-21T00:32:31;11.60;85.90
67050;DHT22;53955;52.442;13.284;2023-11-21T00:34:57;11.60;86.30
67050;DHT22;53955;52.442;13.284;2023-11-21T00:37:24;11.50;86.20
67050;DHT22;53955;52.442;13.284;2023-11-21T00:39:52;11.40;85.20
67050;DHT22;53955;52.442;13.284;2023-11-21T00:42:19;11.40;84.90
67050;DHT22;53955;52.442;13.284;2023-11-21T00:44:46;11.10;85.30
67050;DHT22;53955;52.442;13.284;2023-11-21T00:47:13;11.20;85.20
67050;DHT22;53955;52.442;13.284;2023-11-21T00:49:40;10.90;85.60
67050;DHT22;53955;52.442;13.284;2023-11-21T00:52:06;10.80;85.80
67050;DHT22;53955;52.442;13.284;2023-11-21T00:54:33;10.70;85.60
67050;DHT22;53955;52.442;13.284;2023-11-21T00:57:01;10.70;85.70
67050;DHT22;53955;52.442;13.284;2023-11-21T00:59:29;10.60;85.20
67050;DHT22;53955;52.442;13.284;2023-11-21T01:01:55;10.60;85.30
67050;DHT22;53955;52.442;13.284;2023-11-21T01:04:22;10.50;85.00
67050;DHT22;53955;52.442;13.284;2023-11-21T01:06:49;10.40;84.80
67050;DHT22;53955;52.442;13.284;2023-11-21T01:09:15;10.40;84.40
67050;DHT22;53955;52.442;13.284;2023-11-21T01:11:43;10.20;84.30
67050;DHT22;53955;52.442;13.284;2023-11-21T01:14:11;10.20;85.00
67050;DHT22;53955;52.442;13.284;2023-11-21T01:16:38;10.20;84.90
67050;DHT22;53955;52.442;13.284;2023-11-21T01:19:05;10.20;84.80
67050;DHT22;53955;52.442;13.284;2023-11-21T01:21:32;10.20;84.50
67050;DHT22;53955;52.442;13.284;2023-11-21T01:23:59;10.10;85.00
67050;DHT22;53955;52.442;13.284;2023-11-21T01:26:25;10.20;84.80
67050;DHT22;53955;52.442;13.284;2023-11-21T01:28:52;10.20;84.80
67050;DHT22;53955;52.442;13.284;2023-11-21T01:31:20;10.10;85.30
67050;DHT22;53955;52.442;13.284;2023-11-21T01:33:46;10.10;84.50
67050;DHT22;53955;52.442;13.284;2023-11-21T01:36:14;10.20;84.20
67050;DHT22;53955;52.442;13.284;2023-11-21T01:38:40;10.10;84.50
67050;DHT22;53955;52.442;13.284;2023-11-21T01:41:07;10.00;83.50
67050;DHT22;53955;52.442;13.284;2023-11-21T01:43:36;10.10;83.90
67050;DHT22;53955;52.442;13.284;2023-11-21T01:46:03;10.20;84.10
67050;DHT22;53955;52.442;13.284;2023-11-21T01:48:33;10.10;84.40
67050;DHT22;53955;52.442;13.284;2023-11-21T01:51:00;10.00;83.90
67050;DHT22;53955;52.442;13.284;2023-11-21T01:53:28;10.10;84.00
67050;DHT22;53955;52.442;13.284;2023-11-21T01:55:55;10.00;83.90
67050;DHT22;53955;52.442;13.284;2023-11-21T01:58:23;10.00;83.50
67050;DHT22;53955;52.442;13.284;2023-11-21T02:00:49;10.00;83.90
67050;DHT22;53955;52.442;13.284;2023-11-21T02:03:16;10.00;84.00
67050;DHT22;53955;52.442;13.284;2023-11-21T02:05:45;10.00;84.20
67050;DHT22;53955;52.442;13.284;2023-11-21T02:08:11;10.10;83.50
67050;DHT22;53955;52.442;13.284;2023-11-21T02:10:38;10.00;83.10
67050;DHT22;53955;52.442;13.284;2023-11-21T02:13:06;10.00;83.00
67050;DHT22;53955;52.442;13.284;2023-11-21T02:15:32;9.90;82.50
67050;DHT22;53955;52.442;13.284;2023-11-21T02:17:59;9.90;82.80
67050;DHT22;53955;52.442;13.284;2023-11-21T02:20:26;9.90;82.70
67050;DHT22;53955;52.442;13.284;2023-11-21T02:22:56;9.70;82.90
67050;DHT22;53955;52.442;13.284;2023-11-21T02:25:25;9.80;82.50
67050;DHT22;53955;52.442;13.284;2023-11-21T02:27:51;9.80;82.10
67050;DHT22;53955;52.442;13.284;2023-11-21T02:30:19;9.70;83.00
67050;DHT22;53955;52.442;13.284;2023-11-21T02:32:47;9.80;83.10
67050;DHT22;53955;52.442;13.284;2023-11-21T02:35:13;9.70;82.70
67050;DHT22;53955;52.442;13.284;2023-11-21T02:37:41;9.80;83.00
67050;DHT22;53955;52.442;13.284;2023-11-21T02:40:10;9.70;82.90
67050;DHT22;53955;52.442;13.284;2023-11-21T02:42:39;9.60;83.10
67050;DHT22;53955;52.442;13.284;2023-11-21T02:45:06;9.70;83.70
67050;DHT22;53955;52.442;13.284;2023-11-21T02:47:33;9.70;83.20
67050;DHT22;53955;52.442;13.284;2023-11-21T02:50:00;9.70;82.60
67050;DHT22;53955;52.442;13.284;2023-11-21T02:52:26;9.70;82.60
67050;DHT22;53955;52.442;13.284;2023-11-21T02:54:53;9.70;83.30
67050;DHT22;53955;52.442;13.284;2023-11-21T02:57:21;9.80;82.20
67050;DHT22;53955;52.442;13.284;2023-11-21T02:59:47;9.70;81.80
67050;DHT22;53955;52.442;13.284;2023-11-21T03:02:14;9.70;81.40
67050;DHT22;53955;52.442;13.284;2023-11-21T03:04:41;9.60;81.70
67050;DHT22;53955;52.442;13.284;2023-11-21T03:07:08;9.60;83.00
67050;DHT22;53955;52.442;13.284;2023-11-21T03:09:34;9.70;82.10
67050;DHT22;53955;52.442;13.284;2023-11-21T03:12:01;9.70;81.60
67050;DHT22;53955;52.442;13.284;2023-11-21T03:14:29;9.80;81.30
67050;DHT22;53955;52.442;13.284;2023-11-21T03:16:55;9.60;81.30
67050;DHT22;53955;52.442;13.284;2023-11-21T03:19:22;9.60;81.70
67050;DHT22;53955;52.442;13.284;2023-11-21T03:21:48;9.60;81.20
67050;DHT22;53955;52.442;13.284;2023-11-21T03:24:15;9.60;81.40
67050;DHT22;53955;52.442;13.284;2023-11-21T03:26:44;9.50;81.20
67050;DHT22;53955;52.442;13.284;2023-11-21T03:29:11;9.40;81.10
67050;DHT22;53955;52.442;13.284;2023-11-21T03:31:39;9.50;82.10
67050;DHT22;53955;52.442;13.284;2023-11-21T03:34:05;9.40;81.10
67050;DHT22;53955;52.442;13.284;2023-11-21T03:36:32;9.30;80.60
67050;DHT22;53955;52.442;13.284;2023-11-21T03:38:59;9.20;80.90
67050;DHT22;53955;52.442;13.284;2023-11-21T03:41:25;9.20;81.60
67050;DHT22;53955;52.442;13.284;2023-11-21T03:43:52;9.20;81.70
67050;DHT22;53955;52.442;13.284;2023-11-21T03:46:18;9.20;81.10
67050;DHT22;53955;52.442;13.284;2023-11-21T03:48:46;9.10;81.50
67050;DHT22;53955;52.442;13.284;2023-11-21T03:51:13;9.00;81.30
67050;DHT22;53955;52.442;13.284;2023-11-21T03:53:39;9.00;82.50
67050;DHT22;53955;52.442;13.284;2023-11-21T03:56:07;9.10;82.20
67050;DHT22;53955;52.442;13.284;2023-11-21T03:58:33;9.10;82.30
67050;DHT22;53955;52.442;13.284;2023-11-21T04:01:00;9.10;82.00
67050;DHT22;53955;52.442;13.284;2023-11-21T04:03:27;9.10;81.20
67050;DHT22;53955;52.442;13.284;2023-11-21T04:05:54;9.10;81.00
67050;DHT22;53955;52.442;13.284;2023-11-21T04:08:21;9.10;80.60
67050;DHT22;53955;52.442;13.284;2023-11-21T04:10:48;9.10;80.70
67050;DHT22;53955;52.442;13.284;2023-11-21T04:13:14;9.00;81.00
67050;DHT22;53955;52.442;13.284;2023-11-21T04:15:41;9.10;80.90
67050;DHT22;53955;52.442;13.284;2023-11-21T04:18:08;9.10;81.00
67050;DHT22;53955;52.442;13.284;2023-11-21T04:20:34;9.00;80.20
67050;DHT22;53955;52.442;13.284;2023-11-21T04:23:02;9.00;80.20
67050;DHT22;53955;52.442;13.284;2023-11-21T04:25:29;9.10;80.40
67050;DHT22;53955;52.442;13.284;2023-11-21T04:27:56;9.20;80.10
67050;DHT22;53955;52.442;13.284;2023-11-21T04:30:22;9.10;80.10
67050;DHT22;53955;52.442;13.284;2023-11-21T04:32:49;9.10;79.40
67050;DHT22;53955;52.442;13.284;2023-11-21T04:35:16;9.00;81.10
67050;DHT22;53955;52.442;13.284;2023-11-21T04:37:42;9.70;82.00
67050;DHT22;53955;52.442;13.284;2023-11-21T04:40:11;9.50;78.30
67050;DHT22;53955;52.442;13.284;2023-11-21T04:42:38;9.50;78.70
67050;DHT22;53955;52.442;13.284;2023-11-21T04:45:05;9.40;78.30
67050;DHT22;53955;52.442;13.284;2023-11-21T04:47:34;9.30;78.30
67050;DHT22;53955;52.442;13.284;2023-11-21T04:50:01;9.20;78.50
67050;DHT22;53955;52.442;13.284;2023-11-21T04:52:28;9.20;79.30
67050;DHT22;53955;52.442;13.284;2023-11-21T04:54:55;9.20;78.50
67050;DHT22;53955;52.442;13.284;2023-11-21T04:57:25;9.10;79.50
67050;DHT22;53955;52.442;13.284;2023-11-21T04:59:51;9.20;79.10
67050;DHT22;53955;52.442;13.284;2023-11-21T05:02:18;9.20;78.90
67050;DHT22;53955;52.442;13.284;2023-11-21T05:04:45;9.30;78.30
67050;DHT22;53955;52.442;13.284;2023-11-21T05:07:11;9.30;78.70
67050;DHT22;53955;52.442;13.284;2023-11-21T05:09:41;9.30;78.30
67050;DHT22;53955;52.442;13.284;2023-11-21T05:12:09;9.20;78.40
67050;DHT22;53955;52.442;13.284;2023-11-21T05:14:37;9.30;77.80
67050;DHT22;53955;52.442;13.284;2023-11-21T05:17:04;9.30;77.70
67050;DHT22;53955;52.442;13.284;2023-11-21T05:19:30;9.20;78.30
67050;DHT22;53955;52.442;13.284;2023-11-21T05:21:58;9.20;78.60
67050;DHT22;53955;52.442;13.284;2023-11-21T05:24:25;9.10;77.70
67050;DHT22;53955;52.442;13.284;2023-11-21T05:26:52;9.10;77.20
67050;DHT22;53955;52.442;13.284;2023-11-21T05:29:19;9.10;77.40
67050;DHT22;53955;52.442;13.284;2023-11-21T05:31:47;9.00;77.00
67050;DHT22;53955;52.442;13.284;2023-11-21T05:34:14;9.00;76.70
67050;DHT22;53955;52.442;13.284;2023-11-21T05:36:43;8.90;76.40
67050;DHT22;53955;52.442;13.284;2023-11-21T05:39:09;8.90;77.40
67050;DHT22;53955;52.442;13.284;2023-11-21T05:41:36;8.90;76.20
67050;DHT22;53955;52.442;13.284;2023-11-21T05:44:03;8.90;75.80
67050;DHT22;53955;52.442;13.284;2023-11-21T05:46:30;8.80;76.50
67050;DHT22;53955;52.442;13.284;2023-11-21T05:48:58;8.90;76.90
67050;DHT22;53955;52.442;13.284;2023-11-21T05:51:24;8.90;77.60
67050;DHT22;53955;52.442;13.284;2023-11-21T05:53:51;8.90;77.10
67050;DHT22;53955;52.442;13.284;2023-11-21T05:56:18;8.90;76.40
67050;DHT22;53955;52.442;13.284;2023-11-21T05:58:44;8.80;75.70
67050;DHT22;53955;52.442;13.284;2023-11-21T06:01:11;8.80;75.10
67050;DHT22;53955;52.442;13.284;2023-11-21T06:03:38;8.80;76.30
67050;DHT22;53955;52.442;13.284;2023-11-21T06:06:07;8.80;76.30
67050;DHT22;53955;52.442;13.284;2023-11-21T06:08:33;8.70;76.30
67050;DHT22;53955;52.442;13.284;2023-11-21T06:11:00;8.60;76.60
67050;DHT22;53955;52.442;13.284;2023-11-21T06:13:26;8.60;76.30
67050;DHT22;53955;52.442;13.284;2023-11-21T06:15:53;8.50;76.20
67050;DHT22;53955;52.442;13.284;2023-11-21T06:18:20;8.50;75.50
67050;DHT22;53955;52.442;13.284;2023-11-21T06:20:47;8.40;76.60
67050;DHT22;53955;52.442;13.284;2023-11-21T06:23:14;8.40;76.60
67050;DHT22;53955;52.442;13.284;2023-11-21T06:25:41;8.40;75.70
67050;DHT22;53955;52.442;13.284;2023-11-21T06:28:08;8.40;76.10
67050;DHT22;53955;52.442;13.284;2023-11-21T06:30:35;8.60;76.90
67050;DHT22;53955;52.442;13.284;2023-11-21T06:33:02;8.50;76.70
67050;DHT22;53955;52.442;13.284;2023-11-21T06:35:28;8.50;75.20
67050;DHT22;53955;52.442;13.284;2023-11-21T06:37:58;8.40;74.50
67050;DHT22;53955;52.442;13.284;2023-11-21T06:40:26;8.40;74.70
67050;DHT22;53955;52.442;13.284;2023-11-21T06:42:52;8.30;74.30
67050;DHT22;53955;52.442;13.284;2023-11-21T06:45:19;8.40;74.60
67050;DHT22;53955;52.442;13.284;2023-11-21T06:47:46;8.40;75.20
67050;DHT22;53955;52.442;13.284;2023-11-21T06:50:13;8.40;74.50
67050;DHT22;53955;52.442;13.284;2023-11-21T06:52:40;8.40;74.50
67050;DHT22;53955;52.442;13.284;2023-11-21T06:55:07;8.50;75.50
67050;DHT22;53955;52.442;13.284;2023-11-21T06:57:36;8.50;75.10
67050;DHT22;53955;52.442;13.284;2023-11-21T07:00:03;8.70;74.50
67050;DHT22;53955;52.442;13.284;2023-11-21T07:02:31;8.50;73.60
67050;DHT22;53955;52.442;13.284;2023-11-21T07:04:58;8.50;74.20
67050;DHT22;53955;52.442;13.284;2023-11-21T07:07:27;8.40;74.30
67050;DHT22;53955;52.442;13.284;2023-11-21T07:09:54;8.50;73.40
67050;DHT22;53955;52.442;13.284;2023-11-21T07:12:20;8.50;73.50
67050;DHT22;53955;52.442;13.284;2023-11-21T07:14:50;8.60;73.90
67050;DHT22;53955;52.442;13.284;2023-11-21T07:17:16;8.50;72.80
67050;DHT22;53955;52.442;13.284;2023-11-21T07:19:43;8.60;73.50
67050;DHT22;53955;52.442;13.284;2023-11-21T07:22:10;8.60;74.20
67050;DHT22;53955;52.442;13.284;2023-11-21T07:24:37;8.60;73.40
67050;DHT22;53955;52.442;13.284;2023-11-21T07:27:03;8.60;74.10
67050;DHT22;53955;52.442;13.284;2023-11-21T07:29:30;8.70;73.70
67050;DHT22;53955;52.442;13.284;2023-11-21T07:31:58;8.60;72.80
67050;DHT22;53955;52.442;13.284;2023-11-21T07:34:26;8.70;73.40
67050;DHT22;53955;52.442;13.284;2023-11-21T07:36:52;8.70;72.90
67050;DHT22;53955;52.442;13.284;2023-11-21T07:39:19;8.70;73.10
67050;DHT22;53955;52.442;13.284;2023-11-21T07:41:45;8.70;72.40
67050;DHT22;53955;52.442;13.284;2023-11-21T07:44:14;8.60;72.10
67050;DHT22;53955;52.442;13.284;2023-11-21T07:46:41;8.30;72.70
67050;DHT22;53955;52.442;13.284;2023-11-21T07:49:09;8.60;73.10
67050;DHT22;53955;52.442;13.284;2023-11-21T07:51:35;8.50;72.80
67050;DHT22;53955;52.442;13.284;2023-11-21T07:54:02;8.30;73.60
67050;DHT22;53955;52.442;13.284;2023-11-21T07:56:29;8.40;73.60
67050;DHT22;53955;52.442;13.284;2023-11-21T07:58:55;8.50;73.20
67050;DHT22;53955;52.442;13.284;2023-11-21T08:01:22;8.50;72.80
67050;DHT22;53955;52.442;13.284;2023-11-21T08:03:48;8.50;73.90
67050;DHT22;53955;52.442;13.284;2023-11-21T08:06:18;8.60;74.00
67050;DHT22;53955;52.442;13.284;2023-11-21T08:08:45;8.60;73.20
67050;DHT22;53955;52.442;13.284;2023-11-21T08:11:12;8.60;72.90
67050;DHT22;53955;52.442;13.284;2023-11-21T08:13:39;8.60;73.70
67050;DHT22;53955;52.442;13.284;2023-11-21T08:16:07;8.60;71.80
67050;DHT22;53955;52.442;13.284;2023-11-21T08:18:33;8.60;71.20
67050;DHT22;53955;52.442;13.284;2023-11-21T08:21:01;8.70;71.40
67050;DHT22;53955;52.442;13.284;2023-11-21T08:23:29;8.60;72.10
67050;DHT22;53955;52.442;13.284;2023-11-21T08:25:56;8.60;72.20
67050;DHT22;53955;52.442;13.284;2023-11-21T08:28:22;8.70;71.60
67050;DHT22;53955;52.442;13.284;2023-11-21T08:30:51;8.70;71.30
67050;DHT22;53955;52.442;13.284;2023-11-21T08:33:17;8.60;72.40
67050;DHT22;53955;52.442;13.284;2023-11-21T08:35:44;8.50;71.80
67050;DHT22;53955;52.442;13.284;2023-11-21T08:38:12;8.50;72.30
67050;DHT22;53955;52.442;13.284;2023-11-21T08:40:39;8.50;72.60
67050;DHT22;53955;52.442;13.284;2023-11-21T08:43:06;8.50;72.60
67050;DHT22;53955;52.442;13.284;2023-11-21T08:45:33;8.40;72.70
67050;DHT22;53955;52.442;13.284;2023-11-21T08:48:00;8.50;72.70
67050;DHT22;53955;52.442;13.284;2023-11-21T08:50:27;8.40;73.00
67050;DHT22;53955;52.442;13.284;2023-11-21T08:52:54;8.40;72.00
67050;DHT22;53955;52.442;13.284;2023-11-21T08:55:21;8.20;72.20
67050;DHT22;53955;52.442;13.284;2023-11-21T08:57:49;8.40;72.60
67050;DHT22;53955;52.442;13.284;2023-11-21T09:00:16;8.40;73.30
67050;DHT22;53955;52.442;13.284;2023-11-21T09:02:44;8.40;72.40
67050;DHT22;53955;52.442;13.284;2023-11-21T09:05:11;8.50;71.20
67050;DHT22;53955;52.442;13.284;2023-11-21T09:07:40;8.50;71.40
67050;DHT22;53955;52.442;13.284;2023-11-21T09:10:08;8.50;71.20
67050;DHT22;53955;52.442;13.284;2023-11-21T09:12:35;8.50;71.10
67050;DHT22;53955;52.442;13.284;2023-11-21T09:15:05;8.50;71.50
67050;DHT22;53955;52.442;13.284;2023-11-21T09:17:32;8.50;71.00
67050;DHT22;53955;52.442;13.284;2023-11-21T09:19:59;8.50;70.60
67050;DHT22;53955;52.442;13.284;2023-11-21T09:22:26;8.40;70.70
67050;DHT22;53955;52.442;13.284;2023-11-21T09:24:55;8.50;72.80
67050;DHT22;53955;52.442;13.284;2023-11-21T09:27:22;8.60;72.50
67050;DHT22;53955;52.442;13.284;2023-11-21T09:29:48;8.60;70.80
67050;DHT22;53955;52.442;13.284;2023-11-21T09:32:16;8.50;70.80
67050;DHT22;53955;52.442;13.284;2023-11-21T09:34:44;8.60;71.70
67050;DHT22;53955;52.442;13.284;2023-11-21T09:37:10;8.70;72.20
67050;DHT22;53955;52.442;13.284;2023-11-21T09:39:37;8.70;72.60
67050;DHT22;53955;52.442;13.284;2023-11-21T09:42:10;8.70;72.00
67050;DHT22;53955;52.442;13.284;2023-11-21T09:44:44;8.70;72.60
67050;DHT22;53955;52.442;13.284;2023-11-21T09:47:17;8.70;73.00
67050;DHT22;53955;52.442;13.284;2023-11-21T09:49:47;8.70;72.00
67050;DHT22;53955;52.442;13.284;2023-11-21T09:52:21;8.70;73.00
67050;DHT22;53955;52.442;13.284;2023-11-21T09:54:50;8.60;72.40
67050;DHT22;53955;52.442;13.284;2023-11-21T09:57:19;8.70;73.20
67050;DHT22;53955;52.442;13.284;2023-11-21T09:59:47;8.60;71.50
67050;DHT22;53955;52.442;13.284;2023-11-21T10:02:17;8.70;70.50
67050;DHT22;53955;52.442;13.284;2023-11-21T10:04:46;8.70;69.60
67050;DHT22;53955;52.442;13.284;2023-11-21T10:07:13;8.60;70.60
67050;DHT22;53955;52.442;13.284;2023-11-21T10:09:43;8.70;71.40
67050;DHT22;53955;52.442;13.284;2023-11-21T10:12:10;8.60;70.90
67050;DHT22;53955;52.442;13.284;2023-11-21T10:14:41;8.60;71.10
67050;DHT22;53955;52.442;13.284;2023-11-21T10:17:08;8.60;70.20
67050;DHT22;53955;52.442;13.284;2023-11-21T10:19:39;8.70;69.10
67050;DHT22;53955;52.442;13.284;2023-11-21T10:22:06;8.70;68.60
67050;DHT22;53955;52.442;13.284;2023-11-21T10:24:34;8.50;69.30
67050;DHT22;53955;52.442;13.284;2023-11-21T10:27:00;8.40;70.30
67050;DHT22;53955;52.442;13.284;2023-11-21T10:29:29;8.40;70.40
67050;DHT22;53955;52.442;13.284;2023-11-21T10:31:55;8.40;71.00
67050;DHT22;53955;52.442;13.284;2023-11-21T10:34:24;8.30;71.70
67050;DHT22;53955;52.442;13.284;2023-11-21T10:36:54;8.30;71.60
67050;DHT22;53955;52.442;13.284;2023-11-21T10:39:23;8.30;71.70
67050;DHT22;53955;52.442;13.284;2023-11-21T10:41:54;8.40;72.40
67050;DHT22;53955;52.442;13.284;2023-11-21T10:44:21;8.30;72.50
67050;DHT22;53955;52.442;13.284;2023-11-21T10:46:50;8.40;72.80
67050;DHT22;53955;52.442;13.284;2023-11-21T10:49:17;8.50;72.50
67050;DHT22;53955;52.442;13.284;2023-11-21T10:51:44;8.40;72.20
67050;DHT22;53955;52.442;13.284;2023-11-21T10:54:12;8.50;72.30
67050;DHT22;53955;52.442;13.284;2023-11-21T10:56:39;8.50;71.50
67050;DHT22;53955;52.442;13.284;2023-11-21T10:59:10;8.50;71.60
67050;DHT22;53955;52.442;13.284;2023-11-21T11:01:40;8.50;72.40
67050;DHT22;53955;52.442;13.284;2023-11-21T11:04:09;8.50;71.50
67050;DHT22;53955;52.442;13.284;2023-11-21T11:06:40;8.50;72.70
67050;DHT22;53955;52.442;13.284;2023-11-21T11:09:08;8.50;73.20
67050;DHT22;53955;52.442;13.284;2023-11-21T11:11:39;8.60;73.10
67050;DHT22;53955;52.442;13.284;2023-11-21T11:14:07;8.50;72.90
67050;DHT22;53955;52.442;13.284;2023-11-21T11:16:33;8.50;73.90
67050;DHT22;53955;52.442;13.284;2023-11-21T11:19:00;8.50;74.50
67050;DHT22;53955;52.442;13.284;2023-11-21T11:21:35;8.50;75.00
67050;DHT22;53955;52.442;13.284;2023-11-21T11:24:17;8.40;75.70
67050;DHT22;53955;52.442;13.284;2023-11-21T11:26:51;8.40;75.00
67050;DHT22;53955;52.442;13.284;2023-11-21T11:29:30;8.50;75.20
67050;DHT22;53955;52.442;13.284;2023-11-21T11:32:09;8.50;74.90
67050;DHT22;53955;52.442;13.284;2023-11-21T11:34:44;8.40;75.50
67050;DHT22;53955;52.442;13.284;2023-11-21T11:37:12;8.50;76.00
67050;DHT22;53955;52.442;13.284;2023-11-21T11:39:40;8.40;76.00
67050;DHT22;53955;52.442;13.284;2023-11-21T11:42:12;8.50;77.00
67050;DHT22;53955;52.442;13.284;2023-11-21T11:44:47;8.40;76.70
67050;DHT22;53955;52.442;13.284;2023-11-21T11:47:16;8.40;75.20
67050;DHT22;53955;52.442;13.284;2023-11-21T11:49:59;8.30;74.50
67050;DHT22;53955;52.442;13.284;2023-11-21T11:52:33;8.20;74.10
67050;DHT22;53955;52.442;13.284;2023-11-21T11:55:01;8.30;75.50
67050;DHT22;53955;52.442;13.284;2023-11-21T11:57:31;8.10;75.10
67050;DHT22;53955;52.442;13.284;2023-11-21T12:00:16;8.10;76.70
67050;DHT22;53955;52.442;13.284;2023-11-21T12:02:46;8.10;75.40
67050;DHT22;53955;52.442;13.284;2023-11-21T12:05:14;8.10;75.80
67050;DHT22;53955;52.442;13.284;2023-11-21T12:07:49;8.00;76.10
67050;DHT22;53955;52.442;13.284;2023-11-21T12:10:19;7.90;75.50
67050;DHT22;53955;52.442;13.284;2023-11-21T12:12:50;7.80;75.50
67050;DHT22;53955;52.442;13.284;2023-11-21T12:15:18;7.90;75.90
67050;DHT22;53955;52.442;13.284;2023-11-21T12:17:46;7.90;76.20
67050;DHT22;53955;52.442;13.284;2023-11-21T12:20:13;7.90;74.70
67050;DHT22;53955;52.442;13.284;2023-11-21T12:22:47;7.90;74.80
67050;DHT22;53955;52.442;13.284;2023-11-21T12:25:14;7.80;75.00
67050;DHT22;53955;52.442;13.284;2023-11-21T12:27:44;7.70;74.80
67050;DHT22;53955;52.442;13.284;2023-11-21T12:30:13;7.60;76.40
67050;DHT22;53955;52.442;13.284;2023-11-21T12:32:41;7.70;75.50
67050;DHT22;53955;52.442;13.284;2023-11-21T12:35:09;7.50;75.90
67050;DHT22;53955;52.442;13.284;2023-11-21T12:37:36;7.60;76.60
67050;DHT22;53955;52.442;13.284;2023-11-21T12:40:05;7.70;76.40
67050;DHT22;53955;52.442;13.284;2023-11-21T12:42:32;7.60;75.50
67050;DHT22;53955;52.442;13.284;2023-11-21T12:45:10;7.60;75.30
67050;DHT22;53955;52.442;13.284;2023-11-21T12:47:47;7.70;76.10
67050;DHT22;53955;52.442;13.284;2023-11-21T12:50:14;7.70;75.20
67050;DHT22;53955;52.442;13.284;2023-11-21T12:52:42;7.60;75.20
67050;DHT22;53955;52.442;13.284;2023-11-21T12:55:13;7.70;76.40
67050;DHT22;53955;52.442;13.284;2023-11-21T12:57:42;7.60;75.40
67050;DHT22;53955;52.442;13.284;2023-11-21T13:00:10;7.60;76.30
67050;DHT22;53955;52.442;13.284;2023-11-21T13:02:41;7.60;76.60
67050;DHT22;53955;52.442;13.284;2023-11-21T13:05:09;7.60;76.10
67050;DHT22;53955;52.442;13.284;2023-11-21T13:07:46;7.60;75.60
67050;DHT22;53955;52.442;13.284;2023-11-21T13:10:14;7.70;75.10
67050;DHT22;53955;52.442;13.284;2023-11-21T13:12:43;7.70;74.40
67050;DHT22;53955;52.442;13.284;2023-11-21T13:15:11;7.60;73.70
67050;DHT22;53955;52.442;13.284;2023-11-21T13:17:40;7.90;74.50
67050;DHT22;53955;52.442;13.284;2023-11-21T13:20:07;8.00;74.50
67050;DHT22;53955;52.442;13.284;2023-11-21T13:22:45;7.90;73.80
67050;DHT22;53955;52.442;13.284;2023-11-21T13:25:12;8.00;73.30
67050;DHT22;53955;52.442;13.284;2023-11-21T13:27:40;8.00;73.40
67050;DHT22;53955;52.442;13.284;2023-11-21T13:30:09;7.90;73.40
67050;DHT22;53955;52.442;13.284;2023-11-21T13:32:36;7.90;74.40
67050;DHT22;53955;52.442;13.284;2023-11-21T13:35:03;7.80;74.00
67050;DHT22;53955;52.442;13.284;2023-11-21T13:37:33;7.60;74.70
67050;DHT22;53955;52.442;13.284;2023-11-21T13:40:01;7.40;75.30
67050;DHT22;53955;52.442;13.284;2023-11-21T13:42:35;7.50;75.40
67050;DHT22;53955;52.442;13.284;2023-11-21T13:45:02;7.40;75.20
67050;DHT22;53955;52.442;13.284;2023-11-21T13:47:30;7.30;75.40
67050;DHT22;53955;52.442;13.284;2023-11-21T13:49:58;7.20;75.40
67050;DHT22;53955;52.442;13.284;2023-11-21T13:52:26;7.20;76.10
67050;DHT22;53955;52.442;13.284;2023-11-21T13:54:53;7.20;76.50
67050;DHT22;53955;52.442;13.284;2023-11-21T13:57:23;7.00;76.70
67050;DHT22;53955;52.442;13.284;2023-11-21T13:59:49;7.10;76.90
67050;DHT22;53955;52.442;13.284;2023-11-21T14:02:16;7.10;76.30
67050;DHT22;53955;52.442;13.284;2023-11-21T14:04:44;7.10;76.20
67050;DHT22;53955;52.442;13.284;2023-11-21T14:07:20;7.20;75.90
67050;DHT22;53955;52.442;13.284;2023-11-21T14:09:53;7.10;76.10
67050;DHT22;53955;52.442;13.284;2023-11-21T14:12:20;7.10;75.50
67050;DHT22;53955;52.442;13.284;2023-11-21T14:14:48;7.00;75.80
67050;DHT22;53955;52.442;13.284;2023-11-21T14:17:14;7.20;75.20
67050;DHT22;53955;52.442;13.284;2023-11-21T14:19:41;7.10;75.10
67050;DHT22;53955;52.442;13.284;2023-11-21T14:22:09;7.20;75.10
67050;DHT22;53955;52.442;13.284;2023-11-21T14:24:36;7.10;74.40
67050;DHT22;53955;52.442;13.284;2023-11-21T14:27:03;7.10;75.40
67050;DHT22;53955;52.442;13.284;2023-11-21T14:29:30;7.10;75.40
67050;DHT22;53955;52.442;13.284;2023-11-21T14:32:04;6.90;75.80
67050;DHT22;53955;52.442;13.284;2023-11-21T14:34:31;7.00;75.80
67050;DHT22;53955;52.442;13.284;2023-11-21T14:36:57;7.00;75.70
67050;DHT22;53955;52.442;13.284;2023-11-21T14:39:24;7.00;75.90
67050;DHT22;53955;52.442;13.284;2023-11-21T14:41:53;6.90;74.90
67050;DHT22;53955;52.442;13.284;2023-11-21T14:44:21;6.90;73.60
67050;DHT22;53955;52.442;13.284;2023-11-21T14:46:51;6.80;73.70
67050;DHT22;53955;52.442;13.284;2023-11-21T14:49:21;6.60;74.40
67050;DHT22;53955;52.442;13.284;2023-11-21T14:51:52;6.60;75.30
67050;DHT22;53955;52.442;13.284;2023-11-21T14:54:26;6.70;74.90
67050;DHT22;53955;52.442;13.284;2023-11-21T14:57:06;6.60;74.60
67050;DHT22;53955;52.442;13.284;2023-11-21T14:59:35;6.60;74.00
67050;DHT22;53955;52.442;13.284;2023-11-21T15:02:01;6.60;73.50
67050;DHT22;53955;52.442;13.284;2023-11-21T15:04:41;6.70;74.40
67050;DHT22;53955;52.442;13.284;2023-11-21T15:07:08;6.70;73.40
67050;DHT22;53955;52.442;13.284;2023-11-21T15:09:34;6.50;73.40
67050;DHT22;53955;52.442;13.284;2023-11-21T15:12:05;6.70;73.60
67050;DHT22;53955;52.442;13.284;2023-11-21T15:14:40;6.50;73.00
67050;DHT22;53955;52.442;13.284;2023-11-21T15:17:08;6.50;72.50
67050;DHT22;53955;52.442;13.284;2023-11-21T15:19:35;6.60;73.90
67050;DHT22;53955;52.442;13.284;2023-11-21T15:22:03;6.60;73.30
67050;DHT22;53955;52.442;13.284;2023-11-21T15:24:32;6.50;73.10
67050;DHT22;53955;52.442;13.284;2023-11-21T15:26:58;6.40;72.70
67050;DHT22;53955;52.442;13.284;2023-11-21T15:29:25;6.30;72.70
67050;DHT22;53955;52.442;13.284;2023-11-21T15:31:53;6.30;73.10